createdAt,value
2022-10-17T00:00:43.180Z,62.1
2022-10-17T00:01:44.336Z,62.4
2022-10-17T00:02:45.437Z,62.6
2022-10-17T00:03:47.442Z,62.7
2022-10-17T00:04:49.418Z,62.8
2022-10-17T00:05:51.404Z,62.9
2022-10-17T00:06:53.357Z,63
2022-10-17T00:07:55.316Z,63.1
2022-10-17T00:08:56.236Z,63.1
2022-10-17T00:09:57.236Z,63.1
2022-10-17T00:10:58.217Z,62.7
2022-10-17T00:11:59.261Z,62.7
2022-10-17T00:13:00.455Z,62.5
2022-10-17T00:14:02.476Z,62.1
2022-10-17T00:15:04.440Z,62
2022-10-17T00:16:06.401Z,62.2
2022-10-17T00:17:08.416Z,62.3
2022-10-17T00:18:10.356Z,62.1
2022-10-17T00:19:12.388Z,62
2022-10-17T00:20:14.420Z,62
2022-10-17T00:21:16.417Z,61.8
2022-10-17T00:22:18.439Z,61.7
2022-10-17T00:23:20.257Z,61.6
2022-10-17T00:24:21.218Z,61.7
2022-10-17T00:25:22.257Z,61.7
2022-10-17T00:26:23.256Z,61.6
2022-10-17T00:27:24.270Z,61.5
2022-10-17T00:28:25.381Z,61.5
2022-10-17T00:29:27.437Z,61.6
2022-10-17T00:30:29.394Z,61.6
2022-10-17T00:31:31.457Z,62
2022-10-17T00:32:33.295Z,62.2
2022-10-17T00:33:34.416Z,62
2022-10-17T00:34:36.396Z,62
2022-10-17T00:35:38.437Z,61.8
2022-10-17T00:36:40.358Z,61.7
2022-10-17T00:37:42.218Z,61.7
2022-10-17T00:38:43.340Z,61.7
2022-10-17T00:39:45.376Z,61.7
2022-10-17T00:40:47.470Z,61.5
2022-10-17T00:41:49.375Z,61.2
2022-10-17T00:42:51.396Z,61.1
2022-10-17T00:43:53.365Z,61.3
2022-10-17T00:44:55.457Z,61.4
2022-10-17T00:45:57.436Z,61.5
2022-10-17T00:46:59.420Z,61.6
2022-10-17T00:48:01.498Z,61.5
2022-10-17T00:49:03.497Z,61.3
2022-10-17T00:50:05.519Z,61.4
2022-10-17T00:51:07.437Z,61.5
2022-10-17T00:52:09.237Z,61.4
2022-10-17T00:53:10.238Z,61.5
2022-10-17T00:54:11.298Z,61.5
2022-10-17T00:55:12.316Z,61.5
2022-10-17T00:56:13.256Z,61.6
2022-10-17T00:57:14.237Z,61.6
2022-10-17T00:58:15.396Z,61.5
2022-10-17T00:59:17.377Z,61.6
2022-10-17T01:00:19.392Z,61.5
2022-10-17T01:01:21.461Z,61.6
2022-10-17T01:02:23.399Z,61.4
2022-10-17T01:03:25.457Z,61.4
2022-10-17T01:04:27.396Z,61.2
2022-10-17T01:05:29.372Z,61.2
2022-10-17T01:06:31.290Z,61.3
2022-10-17T01:07:33.332Z,61.4
2022-10-17T01:08:34.195Z,62
2022-10-17T01:09:35.799Z,62.2
2022-10-17T01:10:37.403Z,62.2
2022-10-17T01:11:39.618Z,62.3
2022-10-17T01:12:41.586Z,62.3
2022-10-17T01:13:43.359Z,62.1
2022-10-17T01:14:45.396Z,62
2022-10-17T01:15:47.438Z,61.8
2022-10-17T01:16:49.496Z,61.5
2022-10-17T01:17:51.563Z,61.4
2022-10-17T01:18:53.537Z,61.3
2022-10-17T01:19:55.237Z,61.4
2022-10-17T01:20:56.241Z,61.8
2022-10-17T01:21:57.297Z,61.7
2022-10-17T01:22:58.257Z,61.7
2022-10-17T01:23:59.257Z,61.4
2022-10-17T01:25:00.378Z,61.4
2022-10-17T01:26:02.436Z,61.6
2022-10-17T01:27:04.259Z,61.9
2022-10-17T01:28:05.763Z,62.1
2022-10-17T01:29:07.276Z,62.1
2022-10-17T01:30:08.259Z,62
2022-10-17T01:31:09.316Z,62
2022-10-17T01:32:10.257Z,62.1
2022-10-17T01:33:11.360Z,62.1
2022-10-17T01:34:12.414Z,62.4
2022-10-17T01:35:14.466Z,62.6
2022-10-17T01:36:16.403Z,62.6
2022-10-17T01:37:18.414Z,62.4
2022-10-17T01:38:20.418Z,62.3
2022-10-17T01:39:22.396Z,62.3
2022-10-17T01:40:24.377Z,62
2022-10-17T01:41:26.412Z,61.7
2022-10-17T01:42:28.867Z,61.7
2022-10-17T01:43:30.457Z,61.6
2022-10-17T01:44:32.617Z,61.5
2022-10-17T01:45:34.393Z,61.7
2022-10-17T01:46:36.456Z,62
2022-10-17T01:47:38.480Z,62.1
2022-10-17T01:48:40.401Z,61.3
2022-10-17T01:49:42.276Z,61.4
2022-10-17T01:50:43.257Z,61.4
2022-10-17T01:51:44.396Z,61.3
2022-10-17T01:52:46.479Z,61.2
2022-10-17T01:53:48.436Z,61.2
2022-10-17T01:54:50.516Z,61.4
2022-10-17T01:55:52.540Z,61.8
2022-10-17T01:56:54.456Z,62.2
2022-10-17T01:57:56.497Z,62.7
2022-10-17T01:58:58.458Z,63.2
2022-10-17T02:00:00.364Z,63.7
2022-10-17T02:03:55.519Z,63.9
2022-10-17T02:04:57.537Z,64
2022-10-17T02:05:59.428Z,64.1
2022-10-17T02:07:01.711Z,64.3
2022-10-17T02:08:03.476Z,64.4
2022-10-17T02:09:05.313Z,64.4
2022-10-17T02:10:06.285Z,64.3
2022-10-17T02:11:07.363Z,64.5
2022-10-17T02:12:08.213Z,64.8
2022-10-17T02:13:09.335Z,64.1
2022-10-17T02:14:10.331Z,64.3
2022-10-17T02:15:11.232Z,64.2
2022-10-17T02:16:12.413Z,63.9
2022-10-17T02:17:14.311Z,63.5
2022-10-17T02:18:15.334Z,63.2
2022-10-17T02:19:16.347Z,63.4
2022-10-17T02:20:17.332Z,63.6
2022-10-17T02:21:18.274Z,63.7
2022-10-17T02:22:19.311Z,63.6
2022-10-17T02:23:20.350Z,62.9
2022-10-17T02:24:21.412Z,62
2022-10-17T02:25:23.447Z,61.4
2022-10-17T02:26:25.637Z,61.2
2022-10-17T02:27:27.707Z,61.4
2022-10-17T02:28:29.569Z,61.6
2022-10-17T02:29:31.372Z,61.2
2022-10-17T02:30:33.395Z,60.8
2022-10-17T02:31:36.012Z,60.5
2022-10-17T02:32:37.532Z,60.9
2022-10-17T02:33:39.293Z,60.9
2022-10-17T02:34:40.297Z,61.2
2022-10-17T02:35:41.272Z,61.2
2022-10-17T02:36:42.351Z,61.1
2022-10-17T02:37:43.334Z,61
2022-10-17T02:38:44.271Z,61
2022-10-17T02:39:45.331Z,60.9
2022-10-17T02:40:46.573Z,60.8
2022-10-17T02:41:48.471Z,61.1
2022-10-17T02:42:50.551Z,61.4
2022-10-17T02:43:52.532Z,61.7
2022-10-17T02:44:54.467Z,61.9
2022-10-17T02:45:56.561Z,61.5
2022-10-17T02:46:58.503Z,61.6
2022-10-17T02:48:00.471Z,62
2022-10-17T02:49:02.514Z,62.9
2022-10-17T02:50:04.471Z,63.3
2022-10-17T02:51:06.571Z,63.5
2022-10-17T02:52:08.452Z,63.6
2022-10-17T02:53:10.573Z,63.4
2022-10-17T02:54:12.611Z,62.9
2022-10-17T02:55:14.591Z,62.9
2022-10-17T02:56:16.494Z,62.9
2022-10-17T02:57:18.492Z,62.9
2022-10-17T02:58:20.332Z,62.8
2022-10-17T02:59:21.425Z,62.6
2022-10-17T03:00:22.365Z,62.6
2022-10-17T03:01:23.506Z,62.5
2022-10-17T03:02:25.493Z,62.5
2022-10-17T03:03:27.533Z,62.4
2022-10-17T03:04:29.277Z,62.2
2022-10-17T03:05:30.577Z,61.9
2022-10-17T03:06:32.571Z,61.7
2022-10-17T03:07:34.531Z,61.6
2022-10-17T03:08:39.507Z,61.8
2022-10-17T03:09:38.452Z,61.9
2022-10-17T03:10:40.481Z,62.2
2022-10-17T03:11:42.419Z,62.3
2022-10-17T03:12:44.426Z,62.2
2022-10-17T03:13:46.513Z,62.1
2022-10-17T03:14:48.432Z,62.4
2022-10-17T03:15:50.531Z,62.7
2022-10-17T03:16:52.338Z,62.8
2022-10-17T03:17:53.452Z,62.9
2022-10-17T03:18:55.561Z,63
2022-10-17T03:19:57.251Z,63.1
2022-10-17T03:20:58.447Z,63.1
2022-10-17T03:22:00.324Z,63.3
2022-10-17T03:23:01.575Z,63.4
2022-10-17T03:24:03.551Z,63.2
2022-10-17T03:25:05.512Z,63.4
2022-10-17T03:26:07.492Z,63.4
2022-10-17T03:27:09.321Z,63.3
2022-10-17T03:28:10.391Z,63
2022-10-17T03:29:11.364Z,62.9
2022-10-17T03:30:12.317Z,62.7
2022-10-17T03:31:13.338Z,62.9
2022-10-17T03:32:14.308Z,62.9
2022-10-17T03:33:15.308Z,62.8
2022-10-17T03:34:16.491Z,62.7
2022-10-17T03:35:18.552Z,62.5
2022-10-17T03:36:20.476Z,62.5
2022-10-17T03:37:22.319Z,62.3
2022-10-17T03:38:23.341Z,62.2
2022-10-17T03:39:24.352Z,61.9
2022-10-17T03:40:25.463Z,61.7
2022-10-17T03:41:27.551Z,61.6
2022-10-17T03:42:29.511Z,61.6
2022-10-17T03:43:31.534Z,61.6
2022-10-17T03:44:33.452Z,61.7
2022-10-17T03:45:36.072Z,61.7
2022-10-17T03:46:37.573Z,61.6
2022-10-17T03:47:39.652Z,61.6
2022-10-17T03:48:41.552Z,61.5
2022-10-17T03:49:43.492Z,61.6
2022-10-17T03:50:45.500Z,61.7
2022-10-17T03:51:47.538Z,61.7
2022-10-17T03:52:49.511Z,61.7
2022-10-17T03:53:51.474Z,61.8
2022-10-17T03:54:53.623Z,61.8
2022-10-17T03:55:55.631Z,61.7
2022-10-17T03:57:59.478Z,61.9
2022-10-17T03:59:01.452Z,62
2022-10-17T04:00:03.591Z,62
2022-10-17T04:01:05.712Z,62.1
2022-10-17T04:02:07.631Z,62
2022-10-17T04:03:11.674Z,62.1
2022-10-17T04:04:11.573Z,62
2022-10-17T04:05:13.541Z,62
2022-10-17T04:06:15.431Z,61.9
2022-10-17T04:07:16.573Z,61.8
2022-10-17T04:08:18.572Z,61.9
2022-10-17T04:09:20.551Z,62
2022-10-17T04:10:22.552Z,62.1
2022-10-17T04:11:24.553Z,62.1
2022-10-17T04:12:26.825Z,62.1
2022-10-17T04:13:28.552Z,61.9
2022-10-17T04:14:30.573Z,62
2022-10-17T04:15:32.511Z,62
2022-10-17T04:16:34.472Z,62
2022-10-17T04:17:37.914Z,62.1
2022-10-17T04:18:38.554Z,62
2022-10-17T04:19:40.412Z,61.8
2022-10-17T04:20:41.431Z,61.7
2022-10-17T04:21:42.374Z,61.5
2022-10-17T04:22:43.403Z,61.3
2022-10-17T04:23:44.333Z,61.4
2022-10-17T04:24:45.513Z,61.6
2022-10-17T04:25:47.503Z,61.8
2022-10-17T04:26:49.591Z,61.8
2022-10-17T04:27:51.651Z,62
2022-10-17T04:28:53.617Z,61.8
2022-10-17T04:29:55.344Z,61.7
2022-10-17T04:30:56.351Z,61.7
2022-10-17T04:31:57.571Z,61.9
2022-10-17T04:32:59.572Z,62
2022-10-17T04:34:01.464Z,61.9
2022-10-17T04:35:03.592Z,61.9
2022-10-17T04:36:05.352Z,62.1
2022-10-17T04:37:06.372Z,61.9
2022-10-17T04:38:07.335Z,61.9
2022-10-17T04:39:08.514Z,62
2022-10-17T04:40:10.482Z,62
2022-10-17T04:41:12.652Z,62
2022-10-17T04:42:14.379Z,62
2022-10-17T04:43:15.611Z,61.8
2022-10-17T04:44:17.531Z,61.8
2022-10-17T04:45:19.611Z,61.7
2022-10-17T04:46:21.584Z,61.7
2022-10-17T04:47:23.631Z,61.7
2022-10-17T04:48:25.559Z,61.7
2022-10-17T04:49:27.677Z,61.7
2022-10-17T04:50:29.534Z,61.8
2022-10-17T04:51:31.433Z,61.9
2022-10-17T04:52:33.572Z,61.9
2022-10-17T04:53:36.016Z,62.2
2022-10-17T04:54:37.583Z,62.2
2022-10-17T04:55:39.633Z,62.1
2022-10-17T04:56:41.591Z,62.3
2022-10-17T04:57:43.454Z,62.6
2022-10-17T04:58:44.352Z,62.7
2022-10-17T04:59:45.472Z,62.7
2022-10-17T05:00:46.599Z,62.5
2022-10-17T05:01:48.592Z,62.4
2022-10-17T05:02:50.593Z,62.5
2022-10-17T05:03:52.529Z,62.5
2022-10-17T05:04:54.674Z,62.3
2022-10-17T05:05:56.542Z,61.9
2022-10-17T05:06:58.669Z,61.7
2022-10-17T05:08:00.636Z,61.8
2022-10-17T05:09:02.628Z,61.8
2022-10-17T05:10:04.475Z,61.7
2022-10-17T05:11:05.333Z,61.6
2022-10-17T05:12:07.992Z,61.6
2022-10-17T05:13:07.292Z,61.4
2022-10-17T05:14:08.378Z,61.3
2022-10-17T05:15:09.471Z,61.4
2022-10-17T05:16:11.597Z,61.4
2022-10-17T05:17:13.570Z,61.4
2022-10-17T05:18:15.432Z,61.3
2022-10-17T05:19:16.317Z,61.2
2022-10-17T05:20:17.477Z,61.1
2022-10-17T05:21:19.541Z,61.2
2022-10-17T05:22:21.600Z,61.2
2022-10-17T05:23:23.509Z,61.2
2022-10-17T05:24:25.490Z,61.2
2022-10-17T05:25:27.596Z,61.2
2022-10-17T05:26:29.527Z,61.4
2022-10-17T05:27:31.551Z,61.5
2022-10-17T05:28:33.615Z,61.7
2022-10-17T05:29:36.292Z,61.8
2022-10-17T05:30:37.716Z,62
2022-10-17T05:31:38.436Z,61.9
2022-10-17T05:32:39.413Z,62
2022-10-17T05:33:40.392Z,62
2022-10-17T05:34:41.452Z,62
2022-10-17T05:35:42.362Z,62.1
2022-10-17T05:36:43.577Z,62.2
2022-10-17T05:37:45.527Z,62.1
2022-10-17T05:38:47.546Z,62.2
2022-10-17T05:39:51.331Z,62.2
2022-10-17T05:40:51.481Z,62.2
2022-10-17T05:41:53.526Z,62.1
2022-10-17T05:42:55.376Z,62.1
2022-10-17T05:43:56.780Z,62.4
2022-10-17T05:44:57.316Z,62.5
2022-10-17T05:45:58.416Z,62.7
2022-10-17T05:46:59.386Z,62.7
2022-10-17T05:48:00.555Z,62.6
2022-10-17T05:49:07.775Z,62.6
2022-10-17T05:50:04.628Z,62.4
2022-10-17T05:51:06.375Z,62.3
2022-10-17T05:52:07.450Z,62.5
2022-10-17T05:53:08.376Z,62.3
2022-10-17T05:54:09.448Z,62.5
2022-10-17T05:55:10.439Z,62.6
2022-10-17T05:56:11.457Z,62.6
2022-10-17T05:57:12.400Z,62.7
2022-10-17T05:58:17.576Z,62.6
2022-10-17T05:59:14.376Z,62.3
2022-10-17T06:00:15.535Z,62.1
2022-10-17T06:01:17.565Z,62.2
2022-10-17T06:02:19.771Z,62.4
2022-10-17T06:03:21.626Z,62.5
2022-10-17T06:04:23.618Z,62.5
2022-10-17T06:05:25.635Z,62.4
2022-10-17T06:06:27.584Z,62.4
2022-10-17T06:07:29.595Z,62.3
2022-10-17T06:08:31.438Z,62.2
2022-10-17T06:09:32.672Z,62
2022-10-17T06:10:34.490Z,61.6
2022-10-17T06:11:35.317Z,61.5
2022-10-17T06:12:36.465Z,61.4
2022-10-17T06:13:37.463Z,61.5
2022-10-17T06:14:38.403Z,60.8
2022-10-17T06:15:39.385Z,60.8
2022-10-17T06:16:40.389Z,60.9
2022-10-17T06:17:41.386Z,60.7
2022-10-17T06:18:42.466Z,60.5
2022-10-17T06:19:43.387Z,60.5
2022-10-17T06:20:45.417Z,60.5
2022-10-17T06:21:45.429Z,60.4
2022-10-17T06:22:46.342Z,60.4
2022-10-17T06:23:47.566Z,60.6
2022-10-17T06:24:49.568Z,60.4
2022-10-17T06:25:51.615Z,60.3
2022-10-17T06:26:53.599Z,59.9
2022-10-17T06:27:55.667Z,59.6
2022-10-17T06:28:57.685Z,59.2
2022-10-17T06:29:59.596Z,59
2022-10-17T06:31:01.576Z,59.1
2022-10-17T06:32:03.639Z,59.2
2022-10-17T06:33:05.553Z,59.3
2022-10-17T06:34:07.409Z,59.3
2022-10-17T06:35:08.415Z,59.3
2022-10-17T06:36:09.436Z,59.2
2022-10-17T06:37:10.422Z,59.1
2022-10-17T06:38:11.635Z,59
2022-10-17T06:39:13.592Z,59.1
2022-10-17T06:40:15.579Z,59.1
2022-10-17T06:41:17.521Z,58.9
2022-10-17T06:42:19.611Z,58.3
2022-10-17T06:43:25.469Z,58.6
2022-10-17T06:44:23.555Z,58.8
2022-10-17T06:45:25.691Z,59
2022-10-17T06:46:27.524Z,59
2022-10-17T06:47:28.711Z,59
2022-10-17T06:48:29.444Z,59.1
2022-10-17T06:49:30.482Z,59.2
2022-10-17T06:50:31.441Z,59.4
2022-10-17T06:51:32.731Z,59.4
2022-10-17T06:52:34.589Z,59.5
2022-10-17T06:53:36.653Z,59.8
2022-10-17T06:54:38.727Z,60.1
2022-10-17T06:55:40.611Z,60
2022-10-17T06:56:42.654Z,59.8
2022-10-17T06:57:44.633Z,59.4
2022-10-17T06:58:46.482Z,59.1
2022-10-17T06:59:47.731Z,58.9
2022-10-17T07:00:49.791Z,58.9
2022-10-17T07:01:51.673Z,58.6
2022-10-17T07:02:53.658Z,57.5
2022-10-17T07:03:55.679Z,57.7
2022-10-17T07:04:57.651Z,57.7
2022-10-17T07:05:59.433Z,57.6
2022-10-17T07:07:00.772Z,57
2022-10-17T07:08:02.711Z,56.5
2022-10-17T07:09:04.611Z,56.1
2022-10-17T07:10:06.600Z,55.6
2022-10-17T07:11:08.672Z,55.4
2022-10-17T07:12:10.658Z,55.3
2022-10-17T07:13:12.671Z,54.7
2022-10-17T07:14:14.554Z,53.2
2022-10-17T07:15:16.570Z,53.6
2022-10-17T07:16:18.582Z,52.9
2022-10-17T07:17:20.732Z,52.7
2022-10-17T07:18:22.858Z,52.6
2022-10-17T07:19:26.151Z,52.7
2022-10-17T07:20:27.744Z,51.9
2022-10-17T07:21:29.617Z,51.8
2022-10-17T07:22:31.593Z,51.2
2022-10-17T07:23:33.591Z,50.9
2022-10-17T07:24:35.585Z,51.2
2022-10-17T07:25:39.297Z,50.3
2022-10-17T07:26:39.701Z,50.7
2022-10-17T07:27:41.635Z,50.8
2022-10-17T07:28:44.127Z,50.4
2022-10-17T07:29:45.891Z,50.2
2022-10-17T07:30:50.612Z,50.7
2022-10-17T07:31:49.551Z,51.1
2022-10-17T07:32:50.490Z,50.8
2022-10-17T07:33:51.512Z,50.4
2022-10-17T07:34:52.431Z,50.7
2022-10-17T07:35:53.478Z,51
2022-10-17T07:36:54.536Z,50.6
2022-10-17T07:37:55.451Z,50.8
2022-10-17T07:38:56.559Z,51.2
2022-10-17T07:39:57.454Z,52
2022-10-17T07:40:58.510Z,52.5
2022-10-17T07:41:59.491Z,52.8
2022-10-17T07:43:00.566Z,52.9
2022-10-17T07:44:01.573Z,52.4
2022-10-17T07:45:03.752Z,51.8
2022-10-17T07:46:05.830Z,51.8
2022-10-17T07:47:07.691Z,51.4
2022-10-17T07:48:09.670Z,51.7
2022-10-17T07:49:11.730Z,52.2
2022-10-17T07:50:13.510Z,52.5
2022-10-17T07:51:14.498Z,53.2
2022-10-17T07:52:15.431Z,52.8
2022-10-17T07:53:16.479Z,52.5
2022-10-17T07:54:17.710Z,52.4
2022-10-17T07:55:19.716Z,52.8
2022-10-17T07:56:21.660Z,53.2
2022-10-17T07:57:23.652Z,53.6
2022-10-17T07:58:25.711Z,53.4
2022-10-17T07:59:27.833Z,53.4
2022-10-17T08:00:29.751Z,53.1
2022-10-17T08:01:31.753Z,53
2022-10-17T08:02:33.672Z,52.5
2022-10-17T08:03:35.611Z,52.2
2022-10-17T08:04:37.694Z,52.6
2022-10-17T08:05:39.471Z,51.5
2022-10-17T08:06:40.690Z,50.4
2022-10-17T08:07:42.751Z,49.5
2022-10-17T08:08:44.631Z,49.6
2022-10-17T08:09:46.674Z,49.9
2022-10-17T08:10:48.646Z,50.1
2022-10-17T08:11:50.731Z,49.7
2022-10-17T08:12:52.610Z,50.2
2022-10-17T08:13:54.631Z,49.9
2022-10-17T08:14:56.718Z,49.8
2022-10-17T08:15:58.530Z,49.5
2022-10-17T08:16:59.559Z,48.3
2022-10-17T08:18:00.511Z,47.9
2022-10-17T08:19:01.635Z,48
2022-10-17T08:20:02.763Z,47.5
2022-10-17T08:21:04.628Z,48.6
2022-10-17T08:22:06.691Z,48.7
2022-10-17T08:23:08.473Z,49.4
2022-10-17T08:24:09.450Z,49.6
2022-10-17T08:25:10.758Z,49.2
2022-10-17T08:26:12.720Z,48.7
2022-10-17T08:27:14.774Z,48.9
2022-10-17T08:28:16.753Z,49.1
2022-10-17T08:29:18.755Z,48.8
2022-10-17T08:30:20.750Z,48.8
2022-10-17T08:31:22.711Z,48.2
2022-10-17T08:32:24.551Z,48.4
2022-10-17T08:33:25.891Z,48.1
2022-10-17T08:34:27.850Z,48.2
2022-10-17T08:35:29.591Z,48.7
2022-10-17T08:36:31.811Z,48.8
2022-10-17T08:37:34.018Z,48.8
2022-10-17T08:38:36.014Z,48.6
2022-10-17T08:39:36.478Z,48.5
2022-10-17T08:40:37.531Z,48.4
2022-10-17T08:41:38.529Z,47.1
2022-10-17T08:42:39.511Z,46.4
2022-10-17T08:43:40.553Z,46.6
2022-10-17T08:44:42.178Z,46.2
2022-10-17T08:45:45.332Z,46.2
2022-10-17T08:46:47.010Z,46.1
2022-10-17T08:47:48.872Z,46.1
2022-10-17T08:48:50.731Z,46.4
2022-10-17T08:49:52.750Z,46.7
2022-10-17T08:50:54.650Z,46.1
2022-10-17T08:51:56.654Z,45.9
2022-10-17T08:52:58.712Z,45.9
2022-10-17T08:54:00.736Z,45.9
2022-10-17T08:55:02.725Z,46
2022-10-17T08:56:04.665Z,45.7
2022-10-17T08:57:06.658Z,46.1
2022-10-17T08:58:08.791Z,46.2
2022-10-17T08:59:10.790Z,46.3
2022-10-17T09:00:12.823Z,46.3
2022-10-17T09:01:14.730Z,46.2
2022-10-17T09:02:16.691Z,45.7
2022-10-17T09:03:18.712Z,46.2
2022-10-17T09:04:20.746Z,45.6
2022-10-17T09:05:25.491Z,45.8
2022-10-17T09:06:24.671Z,44.9
2022-10-17T09:07:26.829Z,44.9
2022-10-17T09:08:27.570Z,44.8
2022-10-17T09:09:28.673Z,45
2022-10-17T09:10:30.833Z,45.4
2022-10-17T09:11:32.630Z,45.5
2022-10-17T09:12:34.741Z,45.5
2022-10-17T09:14:38.752Z,44.8
2022-10-17T09:15:40.737Z,44.4
2022-10-17T09:16:42.652Z,44.4
2022-10-17T09:17:44.671Z,44.1
2022-10-17T09:18:46.720Z,44.4
2022-10-17T09:19:48.671Z,44.2
2022-10-17T09:20:50.690Z,44.4
2022-10-17T09:21:52.626Z,44.4
2022-10-17T09:24:03.708Z,45
2022-10-17T09:24:58.490Z,44.7
2022-10-17T09:25:59.510Z,44.1
2022-10-17T09:27:00.518Z,44.6
2022-10-17T09:28:01.676Z,44.4
2022-10-17T09:29:03.734Z,44.7
2022-10-17T09:30:07.229Z,44.5
2022-10-17T09:31:07.461Z,45
2022-10-17T09:32:08.703Z,45
2022-10-17T09:33:18.526Z,45
2022-10-17T09:34:11.551Z,44.7
2022-10-17T09:35:12.690Z,44.5
2022-10-17T09:36:14.696Z,44.2
2022-10-17T09:37:16.630Z,43.9
2022-10-17T09:38:18.814Z,43.7
2022-10-17T09:39:20.772Z,43
2022-10-17T09:40:22.514Z,42.3
2022-10-17T09:42:25.612Z,41.3
2022-10-17T09:43:26.773Z,41.3
2022-10-17T09:44:28.877Z,41.4
2022-10-17T09:45:30.639Z,41
2022-10-17T09:46:32.657Z,40.7
2022-10-17T09:47:33.670Z,40.8
2022-10-17T09:48:35.651Z,40.4
2022-10-17T09:49:37.776Z,40.8
2022-10-17T09:50:39.839Z,42
2022-10-17T09:51:41.691Z,41.7
2022-10-17T09:52:43.765Z,40.9
2022-10-17T09:53:45.711Z,41.2
2022-10-17T09:54:47.728Z,41.1
2022-10-17T09:55:49.714Z,40.7
2022-10-17T09:56:51.751Z,40.7
2022-10-17T09:57:53.681Z,40.4
2022-10-17T09:58:55.676Z,40.8
2022-10-17T09:59:57.772Z,40.4
2022-10-17T10:00:59.801Z,39.7
2022-10-17T10:02:01.855Z,39.7
2022-10-17T10:03:03.830Z,39.3
2022-10-17T10:04:05.670Z,38.9
2022-10-17T10:05:07.656Z,38.1
2022-10-17T10:06:08.690Z,38
2022-10-17T10:07:10.838Z,38.8
2022-10-17T10:08:12.753Z,40
2022-10-17T10:09:14.681Z,40.6
2022-10-17T10:10:16.811Z,41
2022-10-17T10:11:18.851Z,41.1
2022-10-17T10:12:20.731Z,40
2022-10-17T10:13:22.690Z,40.2
2022-10-17T10:14:24.810Z,40.3
2022-10-17T10:15:26.690Z,40.2
2022-10-17T10:16:28.859Z,40
2022-10-17T10:17:30.735Z,39.7
2022-10-17T10:18:32.881Z,39.9
2022-10-17T10:19:34.717Z,40
2022-10-17T10:20:36.833Z,40
2022-10-17T10:21:38.831Z,40.3
2022-10-17T10:22:40.594Z,40.7
2022-10-17T10:23:41.602Z,40.7
2022-10-17T10:24:42.610Z,40
2022-10-17T10:25:43.606Z,39.6
2022-10-17T10:26:44.610Z,39.3
2022-10-17T10:27:45.611Z,38.5
2022-10-17T10:28:46.679Z,38.3
2022-10-17T10:29:47.671Z,38.3
2022-10-17T10:30:49.607Z,38.2
2022-10-17T10:31:50.581Z,37.9
2022-10-17T10:32:51.613Z,38.4
2022-10-17T10:33:55.626Z,38.1
2022-10-17T10:34:53.582Z,37.4
2022-10-17T10:35:54.549Z,36.4
2022-10-17T10:36:55.701Z,36.8
2022-10-17T10:37:57.824Z,36.9
2022-10-17T10:39:01.183Z,37.6
2022-10-17T10:40:01.739Z,36.4
2022-10-17T10:41:03.858Z,35.8
2022-10-17T10:42:05.770Z,35.5
2022-10-17T10:43:07.625Z,35.6
2022-10-17T10:44:08.649Z,35
2022-10-17T10:45:19.041Z,35.5
2022-10-17T10:46:12.761Z,36.4
2022-10-17T10:47:14.781Z,35.7
2022-10-17T10:48:16.738Z,35.9
2022-10-17T10:49:18.712Z,36.6
2022-10-17T10:50:20.785Z,37
2022-10-17T10:51:22.562Z,37
2022-10-17T10:52:23.500Z,36.5
2022-10-17T10:53:24.622Z,37
2022-10-17T10:54:25.700Z,37
2022-10-17T10:55:26.588Z,36.9
2022-10-17T10:56:27.601Z,36.4
2022-10-17T10:57:28.785Z,36.4
2022-10-17T10:58:29.631Z,35.6
2022-10-17T10:59:30.559Z,36.5
2022-10-17T11:00:31.834Z,35.2
2022-10-17T11:01:33.741Z,34.7
2022-10-17T11:02:35.671Z,33.8
2022-10-17T11:03:36.624Z,33.8
2022-10-17T11:04:37.613Z,34.8
2022-10-17T11:05:38.572Z,36
2022-10-17T11:06:39.571Z,36.2
2022-10-17T11:07:40.573Z,36.1
2022-10-17T11:08:41.561Z,36.1
2022-10-17T11:09:42.641Z,36.1
2022-10-17T11:10:43.513Z,35.7
2022-10-17T11:11:44.597Z,34.9
2022-10-17T11:12:45.618Z,35.4
2022-10-17T11:13:48.577Z,35.5
2022-10-17T11:14:47.753Z,35.3
2022-10-17T11:15:49.792Z,35.3
2022-10-17T11:16:51.721Z,35.3
2022-10-17T11:17:53.691Z,35.3
2022-10-17T11:18:55.783Z,35.5
2022-10-17T11:19:57.751Z,35.2
2022-10-17T11:20:59.716Z,35.5
2022-10-17T11:22:01.791Z,35.4
2022-10-17T11:23:03.656Z,35
2022-10-17T11:24:06.954Z,34.9
2022-10-17T11:25:07.692Z,34.5
2022-10-17T11:26:09.726Z,34.3
2022-10-17T11:27:11.724Z,34.4
2022-10-17T11:28:13.773Z,34.7
2022-10-17T11:29:15.762Z,35.2
2022-10-17T11:30:17.571Z,34.5
2022-10-17T11:31:18.772Z,34.1
2022-10-17T11:32:20.709Z,33.4
2022-10-17T11:33:22.591Z,33.7
2022-10-17T11:34:23.895Z,34.3
2022-10-17T11:35:25.731Z,34.6
2022-10-17T11:36:27.872Z,34.5
2022-10-17T11:37:29.831Z,34.6
2022-10-17T11:38:31.910Z,35
2022-10-17T11:39:33.885Z,35.3
2022-10-17T11:40:35.851Z,35.4
2022-10-17T11:41:37.710Z,35.5
2022-10-17T11:42:39.851Z,35.7
2022-10-17T11:43:41.852Z,34.6
2022-10-17T11:44:43.850Z,34.1
2022-10-17T11:45:45.750Z,33.7
2022-10-17T11:46:48.150Z,33.8
2022-10-17T11:47:49.913Z,34
2022-10-17T11:48:51.931Z,34.1
2022-10-17T11:49:54.038Z,34.3
2022-10-17T11:52:00.561Z,34.4
2022-10-17T11:53:00.076Z,34.8
2022-10-17T11:54:01.631Z,35
2022-10-17T11:55:02.727Z,35.3
2022-10-17T11:56:04.898Z,35.8
2022-10-17T11:57:06.900Z,34.9
2022-10-17T11:58:08.851Z,34.6
2022-10-17T11:59:10.810Z,34.4
2022-10-17T12:00:12.880Z,34.4
2022-10-17T12:01:14.938Z,34.5
2022-10-17T12:02:16.871Z,34.6
2022-10-17T12:03:18.851Z,33.9
2022-10-17T12:04:20.938Z,34.1
2022-10-17T12:05:22.894Z,33.9
2022-10-17T12:06:28.541Z,33.3
2022-10-17T12:07:26.847Z,32.9
2022-10-17T12:08:29.145Z,33.1
2022-10-17T12:09:29.708Z,33
2022-10-17T12:10:30.872Z,33.6
2022-10-17T12:11:32.890Z,33.1
2022-10-17T12:12:34.871Z,33
2022-10-17T12:13:36.842Z,32.9
2022-10-17T12:14:38.712Z,32.7
2022-10-17T12:15:41.747Z,32.3
2022-10-17T12:16:43.679Z,31.9
2022-10-17T12:17:41.920Z,32
2022-10-17T12:18:43.800Z,32
2022-10-17T12:19:45.791Z,31.6
2022-10-17T12:20:47.843Z,31.7
2022-10-17T12:21:49.858Z,31.4
2022-10-17T12:22:51.891Z,31.5
2022-10-17T12:23:53.870Z,31.1
2022-10-17T12:24:55.831Z,30.9
2022-10-17T12:25:59.626Z,30.9
2022-10-17T12:26:59.890Z,31.1
2022-10-17T12:28:01.751Z,31.5
2022-10-17T12:29:03.901Z,31.6
2022-10-17T12:30:05.950Z,31.2
2022-10-17T12:31:07.851Z,31.8
2022-10-17T12:32:09.851Z,32.1
2022-10-17T12:33:11.952Z,31.5
2022-10-17T12:34:13.893Z,31.6
2022-10-17T12:35:16.052Z,31.4
2022-10-17T12:36:17.851Z,31
2022-10-17T12:37:19.879Z,31
2022-10-17T12:38:21.830Z,30.4
2022-10-17T12:39:23.862Z,30.5
2022-10-17T12:40:25.812Z,30.5
2022-10-17T12:41:27.871Z,30.7
2022-10-17T12:42:30.413Z,30.8
2022-10-17T12:43:32.018Z,31
2022-10-17T12:44:34.877Z,31.1
2022-10-17T12:45:35.871Z,30.8
2022-10-17T12:46:37.710Z,31
2022-10-17T12:47:38.730Z,30.4
2022-10-17T12:48:40.715Z,30.2
2022-10-17T12:49:41.820Z,30.2
2022-10-17T12:50:43.761Z,30.1
2022-10-17T12:51:46.063Z,30
2022-10-17T12:52:47.874Z,29.9
2022-10-17T12:53:49.780Z,30.1
2022-10-17T12:55:00.457Z,30.3
2022-10-17T12:55:53.752Z,30.4
2022-10-17T12:56:55.841Z,29.7
2022-10-17T12:57:57.730Z,29.2
2022-10-17T12:58:59.778Z,29.3
2022-10-17T13:00:01.870Z,29.3
2022-10-17T13:01:23.998Z,29.4
2022-10-17T13:02:05.890Z,29.3
2022-10-17T13:03:07.810Z,29.7
2022-10-17T13:04:09.748Z,30
2022-10-17T13:05:11.780Z,30.1
2022-10-17T13:06:13.810Z,30.1
2022-10-17T13:07:15.815Z,30.1
2022-10-17T13:08:17.723Z,29.9
2022-10-17T13:09:18.810Z,29.8
2022-10-17T13:10:20.805Z,30
2022-10-17T13:11:22.818Z,30
2022-10-17T13:12:24.757Z,29.8
2022-10-17T13:13:26.709Z,29.5
2022-10-17T13:14:27.781Z,29.8
2022-10-17T13:15:29.790Z,29.2
2022-10-17T13:16:31.780Z,29
2022-10-17T13:17:33.670Z,29.2
2022-10-17T13:18:34.670Z,29.6
2022-10-17T13:19:35.681Z,29.5
2022-10-17T13:20:36.793Z,29
2022-10-17T13:21:38.773Z,28.9
2022-10-17T13:22:40.898Z,28.9
2022-10-17T13:23:42.715Z,28.8
2022-10-17T13:24:43.772Z,28.7
2022-10-17T13:25:45.832Z,28.7
2022-10-17T13:26:47.798Z,28.6
2022-10-17T13:27:49.900Z,28.5
2022-10-17T13:28:51.746Z,28.4
2022-10-17T13:29:52.629Z,27.7
2022-10-17T13:30:55.843Z,27.2
2022-10-17T13:31:55.691Z,27.1
2022-10-17T13:32:56.710Z,26.9
2022-10-17T13:33:57.860Z,26.9
2022-10-17T13:34:59.823Z,26.8
2022-10-17T13:36:01.894Z,26.8
2022-10-17T13:37:03.726Z,27.1
2022-10-17T13:38:04.906Z,27.1
2022-10-17T13:39:08.480Z,27.3
2022-10-17T13:40:25.007Z,27.4
2022-10-17T13:41:34.037Z,27.3
2022-10-17T13:42:12.897Z,27.2
2022-10-17T13:43:14.799Z,27.1
2022-10-17T13:44:16.809Z,27.3
2022-10-17T13:45:18.819Z,27.4
2022-10-17T13:46:36.562Z,26.9
2022-10-17T13:47:21.711Z,27.1
2022-10-17T13:48:22.650Z,27.2
2022-10-17T13:49:24.566Z,27.4
2022-10-17T13:50:39.957Z,27.2
2022-10-17T13:51:26.650Z,27.2
2022-10-17T13:52:28.097Z,27.4
2022-10-17T13:53:28.885Z,27.5
2022-10-17T13:54:30.941Z,27.6
2022-10-17T13:55:32.861Z,27.6